createdAt,value
2022-10-04T00:00:08.046Z,25.69
2022-10-04T00:00:18.308Z,25.69
2022-10-04T00:00:28.434Z,25.69
2022-10-04T00:00:38.540Z,25.70
2022-10-04T00:00:48.663Z,25.69
2022-10-04T00:00:58.779Z,25.68
2022-10-04T00:01:08.897Z,25.69
2022-10-04T00:01:19.082Z,25.68
2022-10-04T00:01:29.138Z,25.68
2022-10-04T00:01:39.303Z,25.68
2022-10-04T00:01:49.226Z,25.68
2022-10-04T00:01:59.286Z,25.67
2022-10-04T00:02:09.353Z,25.67
2022-10-04T00:02:19.371Z,25.67
2022-10-04T00:02:29.421Z,25.67
2022-10-04T00:02:39.506Z,25.67
2022-10-04T00:02:49.555Z,25.66
2022-10-04T00:02:59.641Z,25.67
2022-10-04T00:03:09.753Z,25.67
2022-10-04T00:03:19.841Z,25.66
2022-10-04T00:03:29.834Z,25.67
2022-10-04T00:03:39.957Z,25.67
2022-10-04T00:03:50.077Z,25.67
2022-10-04T00:04:00.106Z,25.67
2022-10-04T00:04:10.202Z,25.67
2022-10-04T00:04:20.317Z,25.67
2022-10-04T00:04:30.437Z,25.68
2022-10-04T00:04:40.437Z,25.67
2022-10-04T00:04:50.553Z,25.67
2022-10-04T00:05:00.669Z,25.67
2022-10-04T00:05:10.794Z,25.66
2022-10-04T00:05:20.927Z,25.66
2022-10-04T00:05:31.062Z,25.66
2022-10-04T00:05:41.167Z,25.66
2022-10-04T00:05:51.298Z,25.66
2022-10-04T00:06:01.281Z,25.66
2022-10-04T00:06:11.530Z,25.66
2022-10-04T00:06:21.648Z,25.65
2022-10-04T00:06:31.765Z,25.65
2022-10-04T00:06:41.897Z,25.64
2022-10-04T00:06:52.017Z,25.64
2022-10-04T00:07:02.011Z,25.64
2022-10-04T00:07:12.270Z,25.65
2022-10-04T00:07:22.380Z,25.64
2022-10-04T00:07:32.383Z,25.64
2022-10-04T00:07:42.633Z,25.64
2022-10-04T00:07:52.749Z,25.64
2022-10-04T00:08:02.754Z,25.64
2022-10-04T00:08:13.001Z,25.65
2022-10-04T00:08:23.117Z,25.65
2022-10-04T00:08:33.232Z,25.64
2022-10-04T00:08:43.357Z,25.64
2022-10-04T00:08:53.358Z,25.63
2022-10-04T00:09:03.376Z,25.64
2022-10-04T00:09:13.821Z,25.63
2022-10-04T00:09:23.791Z,25.64
2022-10-04T00:09:33.914Z,25.63
2022-10-04T00:09:44.173Z,25.62
2022-10-04T00:09:54.287Z,25.63
2022-10-04T00:10:04.406Z,25.63
2022-10-04T00:10:14.525Z,25.62
2022-10-04T00:10:24.639Z,25.62
2022-10-04T00:10:34.759Z,25.63
2022-10-04T00:10:44.897Z,25.62
2022-10-04T00:10:54.893Z,25.62
2022-10-04T00:11:05.008Z,25.62
2022-10-04T00:11:15.275Z,25.62
2022-10-04T00:11:25.264Z,25.61
2022-10-04T00:11:35.381Z,25.61
2022-10-04T00:11:45.640Z,25.61
2022-10-04T00:11:55.755Z,25.61
2022-10-04T00:12:05.894Z,25.61
2022-10-04T00:12:16.009Z,25.61
2022-10-04T00:12:26.122Z,25.60
2022-10-04T00:12:36.244Z,25.60
2022-10-04T00:12:46.368Z,25.60
2022-10-04T00:12:56.367Z,25.60
2022-10-04T00:13:06.481Z,25.60
2022-10-04T00:13:16.731Z,25.59
2022-10-04T00:13:26.871Z,25.59
2022-10-04T00:13:36.963Z,25.59
2022-10-04T00:13:47.087Z,25.58
2022-10-04T00:13:57.230Z,25.58
2022-10-04T00:14:07.225Z,25.59
2022-10-04T00:14:17.473Z,25.57
2022-10-04T00:14:27.590Z,25.56
2022-10-04T00:14:37.720Z,25.57
2022-10-04T00:14:47.841Z,25.56
2022-10-04T00:14:57.959Z,25.56
2022-10-04T00:15:08.078Z,25.56
2022-10-04T00:15:18.207Z,25.56
2022-10-04T00:15:28.332Z,25.55
2022-10-04T00:15:38.437Z,25.55
2022-10-04T00:15:48.601Z,25.54
2022-10-04T00:15:58.651Z,25.54
2022-10-04T00:16:08.713Z,25.54
2022-10-04T00:16:18.774Z,25.54
2022-10-04T00:16:28.905Z,25.53
2022-10-04T00:16:38.976Z,25.53
2022-10-04T00:16:48.799Z,25.53
2022-10-04T00:16:58.919Z,25.53
2022-10-04T00:17:09.042Z,25.53
2022-10-04T00:17:19.159Z,25.53
2022-10-04T00:17:29.165Z,25.52
2022-10-04T00:17:39.279Z,25.52
2022-10-04T00:17:49.397Z,25.52
2022-10-04T00:17:59.522Z,25.52
2022-10-04T00:18:09.642Z,25.52
2022-10-04T00:18:19.641Z,25.52
2022-10-04T00:18:29.890Z,25.53
2022-10-04T00:18:39.886Z,25.53
2022-10-04T00:18:50.010Z,25.53
2022-10-04T00:19:00.261Z,25.52
2022-10-04T00:19:10.379Z,25.52
2022-10-04T00:19:20.493Z,25.52
2022-10-04T00:19:30.622Z,25.52
2022-10-04T00:19:40.741Z,25.52
2022-10-04T00:19:50.851Z,25.52
2022-10-04T00:20:00.972Z,25.52
2022-10-04T00:20:11.092Z,25.52
2022-10-04T00:20:21.209Z,25.52
2022-10-04T00:20:31.343Z,25.52
2022-10-04T00:20:41.362Z,25.52
2022-10-04T00:20:51.455Z,25.51
2022-10-04T00:21:01.719Z,25.50
2022-10-04T00:21:11.835Z,25.50
2022-10-04T00:21:21.835Z,25.50
2022-10-04T00:21:32.092Z,25.50
2022-10-04T00:21:42.450Z,25.48
2022-10-04T00:21:52.183Z,25.49
2022-10-04T00:22:02.555Z,25.48
2022-10-04T00:22:12.697Z,25.48
2022-10-04T00:22:22.676Z,25.48
2022-10-04T00:22:32.932Z,25.48
2022-10-04T00:22:42.932Z,25.47
2022-10-04T00:22:52.930Z,25.47
2022-10-04T00:23:03.307Z,25.47
2022-10-04T00:23:13.435Z,25.47
2022-10-04T00:23:23.556Z,25.47
2022-10-04T00:23:33.672Z,25.47
2022-10-04T00:23:43.797Z,25.46
2022-10-04T00:23:53.789Z,25.47
2022-10-04T00:24:04.049Z,25.47
2022-10-04T00:24:14.166Z,25.46
2022-10-04T00:24:24.163Z,25.46
2022-10-04T00:24:34.437Z,25.46
2022-10-04T00:24:44.413Z,25.46
2022-10-04T00:24:54.541Z,25.46
2022-10-04T00:25:04.804Z,25.45
2022-10-04T00:25:14.914Z,25.44
2022-10-04T00:25:24.914Z,25.44
2022-10-04T00:25:35.166Z,25.45
2022-10-04T00:25:45.283Z,25.43
2022-10-04T00:25:55.408Z,25.43
2022-10-04T00:26:05.527Z,25.44
2022-10-04T00:26:15.647Z,25.42
2022-10-04T00:26:25.760Z,25.42
2022-10-04T00:26:35.881Z,25.41
2022-10-04T00:26:45.996Z,25.42
2022-10-04T00:26:56.111Z,25.42
2022-10-04T00:27:06.235Z,25.41
2022-10-04T00:27:16.361Z,25.42
2022-10-04T00:27:26.353Z,25.41
2022-10-04T00:27:36.601Z,25.41
2022-10-04T00:27:46.714Z,25.41
2022-10-04T00:27:56.871Z,25.41
2022-10-04T00:28:07.038Z,25.41
2022-10-04T00:28:17.088Z,25.41
2022-10-04T00:28:27.115Z,25.41
2022-10-04T00:28:37.095Z,25.41
2022-10-04T00:28:47.103Z,25.41
2022-10-04T00:28:57.219Z,25.40
2022-10-04T00:29:07.337Z,25.41
2022-10-04T00:29:17.340Z,25.40
2022-10-04T00:29:27.351Z,25.41
2022-10-04T00:29:37.457Z,25.40
2022-10-04T00:29:47.577Z,25.39
2022-10-04T00:29:57.700Z,25.39
2022-10-04T00:30:07.696Z,25.39
2022-10-04T00:30:17.825Z,25.38
2022-10-04T00:30:27.815Z,25.38
2022-10-04T00:30:37.940Z,25.38
2022-10-04T00:30:48.195Z,25.38
2022-10-04T00:30:58.342Z,25.38
2022-10-04T00:31:08.391Z,25.38
2022-10-04T00:31:18.794Z,25.38
2022-10-04T00:31:28.835Z,25.38
2022-10-04T00:31:38.987Z,25.37
2022-10-04T00:31:49.167Z,25.36
2022-10-04T00:31:59.149Z,25.37
2022-10-04T00:32:09.147Z,25.36
2022-10-04T00:32:19.524Z,25.36
2022-10-04T00:32:29.518Z,25.36
2022-10-04T00:32:39.639Z,25.35
2022-10-04T00:32:49.895Z,25.36
2022-10-04T00:33:00.019Z,25.35
2022-10-04T00:33:10.012Z,25.35
2022-10-04T00:33:20.262Z,25.35
2022-10-04T00:33:30.376Z,25.35
2022-10-04T00:33:40.497Z,25.35
2022-10-04T00:33:50.615Z,25.35
2022-10-04T00:34:00.745Z,25.34
2022-10-04T00:34:10.731Z,25.35
2022-10-04T00:34:21.002Z,25.34
2022-10-04T00:34:31.123Z,25.34
2022-10-04T00:34:41.117Z,25.34
2022-10-04T00:34:51.374Z,25.34
2022-10-04T00:35:01.494Z,25.34
2022-10-04T00:35:11.609Z,25.33
2022-10-04T00:35:21.731Z,25.33
2022-10-04T00:35:31.731Z,25.32
2022-10-04T00:35:41.855Z,25.32
2022-10-04T00:35:52.124Z,25.32
2022-10-04T00:36:02.219Z,25.32
2022-10-04T00:36:12.219Z,25.32
2022-10-04T00:36:22.498Z,25.31
2022-10-04T00:36:32.606Z,25.32
2022-10-04T00:36:42.727Z,25.32
2022-10-04T00:36:52.853Z,25.31
2022-10-04T00:37:02.972Z,25.31
2022-10-04T00:37:12.969Z,25.30
2022-10-04T00:37:23.219Z,25.30
2022-10-04T00:37:33.223Z,25.30
2022-10-04T00:37:43.345Z,25.30
2022-10-04T00:37:53.595Z,25.30
2022-10-04T00:38:03.708Z,25.30
2022-10-04T00:38:13.823Z,25.30
2022-10-04T00:38:23.957Z,25.30
2022-10-04T00:38:33.961Z,25.30
2022-10-04T00:38:44.078Z,25.30
2022-10-04T00:38:54.337Z,25.30
2022-10-04T00:39:04.456Z,25.29
2022-10-04T00:39:14.570Z,25.30
2022-10-04T00:39:24.693Z,25.29
2022-10-04T00:39:34.807Z,25.29
2022-10-04T00:39:44.928Z,25.29
2022-10-04T00:39:55.048Z,25.29
2022-10-04T00:40:05.168Z,25.29
2022-10-04T00:40:15.283Z,25.30
2022-10-04T00:40:25.413Z,25.29
2022-10-04T00:40:35.409Z,25.29
2022-10-04T00:40:45.532Z,25.28
2022-10-04T00:40:55.795Z,25.29
2022-10-04T00:41:05.832Z,25.29
2022-10-04T00:41:15.949Z,25.28
2022-10-04T00:41:26.200Z,25.29
2022-10-04T00:41:36.195Z,25.28
2022-10-04T00:41:46.314Z,25.28
2022-10-04T00:41:56.562Z,25.28
2022-10-04T00:42:06.682Z,25.29
2022-10-04T00:42:16.795Z,25.28
2022-10-04T00:42:26.926Z,25.28
2022-10-04T00:42:36.917Z,25.27
2022-10-04T00:42:47.039Z,25.27
2022-10-04T00:42:57.291Z,25.27
2022-10-04T00:43:07.409Z,25.26
2022-10-04T00:43:17.525Z,25.27
2022-10-04T00:43:27.651Z,25.26
2022-10-04T00:43:37.651Z,25.26
2022-10-04T00:43:47.769Z,25.26
2022-10-04T00:43:58.017Z,25.26
2022-10-04T00:44:08.139Z,25.26
2022-10-04T00:44:18.255Z,25.26
2022-10-04T00:44:28.379Z,25.26
2022-10-04T00:44:38.494Z,25.25
2022-10-04T00:44:48.613Z,25.25
2022-10-04T00:44:58.748Z,25.25
2022-10-04T00:45:08.738Z,25.25
2022-10-04T00:45:18.855Z,25.25
2022-10-04T00:45:29.102Z,25.25
2022-10-04T00:45:39.218Z,25.25
2022-10-04T00:45:49.359Z,25.25
2022-10-04T00:45:59.539Z,25.25
2022-10-04T00:46:09.599Z,25.25
2022-10-04T00:46:19.714Z,25.24
2022-10-04T00:46:29.654Z,25.24
2022-10-04T00:46:39.678Z,25.24
2022-10-04T00:46:49.797Z,25.23
2022-10-04T00:46:59.913Z,25.24
2022-10-04T00:47:10.047Z,25.23
2022-10-04T00:47:20.037Z,25.23
2022-10-04T00:47:30.155Z,25.23
2022-10-04T00:47:40.276Z,25.23
2022-10-04T00:47:50.392Z,25.23
2022-10-04T00:48:00.510Z,25.23
2022-10-04T00:48:10.632Z,25.23
2022-10-04T00:48:20.749Z,25.23
2022-10-04T00:48:31.714Z,25.23
2022-10-04T00:48:40.988Z,25.21
2022-10-04T00:48:51.113Z,25.21
2022-10-04T00:49:01.109Z,25.22
2022-10-04T00:49:11.236Z,25.22
2022-10-04T00:49:21.231Z,25.21
2022-10-04T00:49:31.351Z,25.20
2022-10-04T00:49:41.465Z,25.22
2022-10-04T00:49:51.586Z,25.21
2022-10-04T00:50:01.589Z,25.21
2022-10-04T00:50:11.706Z,25.21
2022-10-04T00:50:21.704Z,25.21
2022-10-04T00:50:31.824Z,25.20
2022-10-04T00:50:41.820Z,25.21
2022-10-04T00:50:52.070Z,25.20
2022-10-04T00:51:02.092Z,25.20
2022-10-04T00:51:12.069Z,25.21
2022-10-04T00:51:22.071Z,25.20
2022-10-04T00:51:32.075Z,25.20
2022-10-04T00:51:42.525Z,25.21
2022-10-04T00:51:52.240Z,25.20
2022-10-04T00:52:02.361Z,25.19
2022-10-04T00:52:12.479Z,25.19
2022-10-04T00:52:22.601Z,25.20
2022-10-04T00:52:32.601Z,25.19
2022-10-04T00:52:42.718Z,25.20
2022-10-04T00:52:52.721Z,25.19
2022-10-04T00:53:02.842Z,25.19
2022-10-04T00:53:12.962Z,25.19
2022-10-04T00:53:23.078Z,25.19
2022-10-04T00:53:33.208Z,25.19
2022-10-04T00:53:43.322Z,25.18
2022-10-04T00:53:53.439Z,25.19
2022-10-04T00:54:03.570Z,25.19
2022-10-04T00:54:13.693Z,25.19
2022-10-04T00:54:23.698Z,25.18
2022-10-04T00:54:33.949Z,25.17
2022-10-04T00:54:43.946Z,25.17
2022-10-04T00:54:54.063Z,25.17
2022-10-04T00:55:04.322Z,25.17
2022-10-04T00:55:14.313Z,25.17
2022-10-04T00:55:24.428Z,25.17
2022-10-04T00:55:34.676Z,25.16
2022-10-04T00:55:44.679Z,25.16
2022-10-04T00:55:54.800Z,25.16
2022-10-04T00:56:05.058Z,25.16
2022-10-04T00:56:15.178Z,25.16
2022-10-04T00:56:25.180Z,25.15
2022-10-04T00:56:35.425Z,25.15
2022-10-04T00:56:45.550Z,25.15
2022-10-04T00:56:55.546Z,25.15
2022-10-04T00:57:05.812Z,25.15
2022-10-04T00:57:15.927Z,25.15
2022-10-04T00:57:26.045Z,25.15
2022-10-04T00:57:36.177Z,25.14
2022-10-04T00:57:46.296Z,25.14
2022-10-04T00:57:56.410Z,25.14
2022-10-04T00:58:06.535Z,25.14
2022-10-04T00:58:16.534Z,25.14
2022-10-04T00:58:26.665Z,25.14
2022-10-04T00:58:36.919Z,25.14
2022-10-04T00:58:46.976Z,25.13
2022-10-04T00:58:56.972Z,25.13
2022-10-04T00:59:07.359Z,25.14
2022-10-04T00:59:17.350Z,25.13
2022-10-04T00:59:27.468Z,25.13
2022-10-04T00:59:37.712Z,25.13
2022-10-04T00:59:47.830Z,25.13
2022-10-04T00:59:57.949Z,25.13
2022-10-04T01:00:08.587Z,25.12
2022-10-04T01:00:18.094Z,25.13
2022-10-04T01:00:28.201Z,25.13
2022-10-04T01:00:38.631Z,25.13
2022-10-04T01:00:48.629Z,25.12
2022-10-04T01:00:58.751Z,25.13
2022-10-04T01:01:08.669Z,25.11
2022-10-04T01:01:18.744Z,25.12
2022-10-04T01:01:28.800Z,25.12
2022-10-04T01:01:38.865Z,25.12
2022-10-04T01:01:48.957Z,25.11
2022-10-04T01:01:58.935Z,25.11
2022-10-04T01:02:09.007Z,25.11
2022-10-04T01:02:19.243Z,25.11
2022-10-04T01:02:29.295Z,25.11
2022-10-04T01:02:39.359Z,25.11
2022-10-04T01:02:49.390Z,25.11
2022-10-04T01:02:59.401Z,25.11
2022-10-04T01:03:09.395Z,25.10
2022-10-04T01:03:19.510Z,25.11
2022-10-04T01:03:29.632Z,25.11
2022-10-04T01:03:39.650Z,25.11
2022-10-04T01:03:49.644Z,25.10
2022-10-04T01:03:59.769Z,25.11
2022-10-04T01:04:09.889Z,25.10
2022-10-04T01:04:20.007Z,25.10
2022-10-04T01:04:30.129Z,25.10
2022-10-04T01:04:40.245Z,25.10
2022-10-04T01:04:50.364Z,25.10
2022-10-04T01:05:00.493Z,25.10
2022-10-04T01:05:10.602Z,25.10
2022-10-04T01:05:20.716Z,25.10
2022-10-04T01:05:30.839Z,25.10
2022-10-04T01:05:40.954Z,25.09
2022-10-04T01:05:51.079Z,25.10
2022-10-04T01:06:01.203Z,25.09
2022-10-04T01:06:11.347Z,25.09
2022-10-04T01:06:21.438Z,25.09
2022-10-04T01:06:31.566Z,25.09
2022-10-04T01:06:41.681Z,25.09
2022-10-04T01:06:51.802Z,25.09
2022-10-04T01:07:01.924Z,25.09
2022-10-04T01:07:12.044Z,25.09
2022-10-04T01:07:22.159Z,25.08
2022-10-04T01:07:32.282Z,25.08
2022-10-04T01:07:42.398Z,25.09
2022-10-04T01:07:52.516Z,25.09
2022-10-04T01:08:02.639Z,25.08
2022-10-04T01:08:12.768Z,25.08
2022-10-04T01:08:22.881Z,25.08
2022-10-04T01:08:33.007Z,25.07
2022-10-04T01:08:43.130Z,25.08
2022-10-04T01:08:53.122Z,25.07
2022-10-04T01:09:03.380Z,25.08
2022-10-04T01:09:13.497Z,25.08
2022-10-04T01:09:23.616Z,25.07
2022-10-04T01:09:33.751Z,25.08
2022-10-04T01:09:43.855Z,25.07
2022-10-04T01:09:53.980Z,25.07
2022-10-04T01:10:04.094Z,25.06
2022-10-04T01:10:14.213Z,25.07
2022-10-04T01:10:24.331Z,25.06
2022-10-04T01:10:34.457Z,25.07
2022-10-04T01:10:44.593Z,25.07
2022-10-04T01:10:54.584Z,25.07
2022-10-04T01:11:04.835Z,25.06
2022-10-04T01:11:14.827Z,25.06
2022-10-04T01:11:24.950Z,25.07
2022-10-04T01:11:35.194Z,25.06
2022-10-04T01:11:45.308Z,25.06
2022-10-04T01:11:55.426Z,25.06
2022-10-04T01:12:05.552Z,25.06
2022-10-04T01:12:15.665Z,25.06
2022-10-04T01:12:25.779Z,25.06
2022-10-04T01:12:35.903Z,25.06
2022-10-04T01:12:45.902Z,25.06
2022-10-04T01:12:56.020Z,25.05
2022-10-04T01:13:06.267Z,25.05
2022-10-04T01:13:16.395Z,25.05
2022-10-04T01:13:26.514Z,25.05
2022-10-04T01:13:36.643Z,25.05
2022-10-04T01:13:46.764Z,25.05
2022-10-04T01:13:56.881Z,25.05
2022-10-04T01:14:07.018Z,25.05
2022-10-04T01:14:17.133Z,25.05
2022-10-04T01:14:27.248Z,25.04
2022-10-04T01:14:37.371Z,25.04
2022-10-04T01:14:47.484Z,25.04
2022-10-04T01:14:57.602Z,25.04
2022-10-04T01:15:07.737Z,25.04
2022-10-04T01:15:17.848Z,25.03
2022-10-04T01:15:27.965Z,25.03
2022-10-04T01:15:38.156Z,25.03
2022-10-04T01:15:48.288Z,25.03
2022-10-04T01:15:58.225Z,25.03
2022-10-04T01:16:08.266Z,25.03
2022-10-04T01:16:18.386Z,25.03
2022-10-04T01:16:28.443Z,25.03
2022-10-04T01:16:38.486Z,25.02
2022-10-04T01:16:48.501Z,25.03
2022-10-04T01:16:58.496Z,25.02
2022-10-04T01:17:08.494Z,25.02
2022-10-04T01:17:18.748Z,25.02
2022-10-04T01:17:28.746Z,25.02
2022-10-04T01:17:38.867Z,25.02
2022-10-04T01:17:49.115Z,25.02
2022-10-04T01:18:01.887Z,25.01
2022-10-04T01:18:09.737Z,25.00
2022-10-04T01:18:19.375Z,25.00
2022-10-04T01:18:29.383Z,25.00
2022-10-04T01:18:39.389Z,25.00
2022-10-04T01:18:49.402Z,25.00
2022-10-04T01:18:59.406Z,25.00
2022-10-04T01:19:09.528Z,25.01
2022-10-04T01:19:19.645Z,25.01
2022-10-04T01:19:29.763Z,25.01
2022-10-04T01:19:39.889Z,25.01
2022-10-04T01:19:49.999Z,25.01
2022-10-04T01:19:59.998Z,25.01
2022-10-04T01:20:10.251Z,25.01
2022-10-04T01:20:20.369Z,25.00
2022-10-04T01:20:30.482Z,25.01
2022-10-04T01:20:40.607Z,25.00
2022-10-04T01:20:50.721Z,25.00
2022-10-04T01:21:00.846Z,25.00
2022-10-04T01:21:10.960Z,25.00
2022-10-04T01:21:21.101Z,25.00
2022-10-04T01:21:31.194Z,25.00
2022-10-04T01:21:41.545Z,25.00
2022-10-04T01:21:51.353Z,25.00
2022-10-04T01:22:01.344Z,25.01
2022-10-04T01:22:11.347Z,25.00
2022-10-04T01:22:21.466Z,25.00
2022-10-04T01:22:31.583Z,25.00
2022-10-04T01:22:41.699Z,25.00
2022-10-04T01:22:51.820Z,25.00
2022-10-04T01:23:01.940Z,25.00
2022-10-04T01:23:11.952Z,25.00
2022-10-04T01:23:21.945Z,25.00
2022-10-04T01:23:32.064Z,25.01
2022-10-04T01:23:42.063Z,25.00
2022-10-04T01:23:52.071Z,25.00
2022-10-04T01:24:02.195Z,25.00
2022-10-04T01:24:12.197Z,25.00
2022-10-04T01:24:22.458Z,24.99
2022-10-04T01:24:32.448Z,25.00
2022-10-04T01:24:42.568Z,24.99
2022-10-04T01:24:52.826Z,25.00
2022-10-04T01:25:02.947Z,24.99
2022-10-04T01:25:13.077Z,24.99
2022-10-04T01:25:23.207Z,25.00
2022-10-04T01:25:33.204Z,25.00
2022-10-04T01:25:43.329Z,24.99
2022-10-04T01:25:53.583Z,24.99
2022-10-04T01:26:03.699Z,24.99
2022-10-04T01:26:13.816Z,24.99
2022-10-04T01:26:23.952Z,24.98
2022-10-04T01:26:33.951Z,24.98
2022-10-04T01:26:44.069Z,24.98
2022-10-04T01:26:54.333Z,24.97
2022-10-04T01:27:04.450Z,24.98
2022-10-04T01:27:14.567Z,24.98
2022-10-04T01:27:24.689Z,24.98
2022-10-04T01:27:34.693Z,24.98
2022-10-04T01:27:44.806Z,24.98
2022-10-04T01:27:55.150Z,24.97
2022-10-04T01:28:05.167Z,24.97
2022-10-04T01:28:15.268Z,24.97
2022-10-04T01:28:25.391Z,24.98
2022-10-04T01:28:35.529Z,24.97
2022-10-04T01:28:45.459Z,24.97
2022-10-04T01:28:55.574Z,24.97
2022-10-04T01:29:05.590Z,24.97
2022-10-04T01:29:15.579Z,24.97
2022-10-04T01:29:25.723Z,24.97
2022-10-04T01:29:35.853Z,24.97
2022-10-04T01:29:45.971Z,24.97
2022-10-04T01:29:56.086Z,24.97
2022-10-04T01:30:06.211Z,24.96
2022-10-04T01:30:16.210Z,24.97
2022-10-04T01:30:26.327Z,24.96
2022-10-04T01:30:36.585Z,24.97
2022-10-04T01:30:46.706Z,24.96
2022-10-04T01:30:56.889Z,24.96
2022-10-04T01:31:07.059Z,24.96
2022-10-04T01:31:17.135Z,24.97
2022-10-04T01:31:27.135Z,24.96
2022-10-04T01:31:37.594Z,24.96
2022-10-04T01:31:47.563Z,24.96
2022-10-04T01:31:57.649Z,24.96
2022-10-04T01:32:07.894Z,24.96
2022-10-04T01:32:17.880Z,24.96
2022-10-04T01:32:27.995Z,24.96
2022-10-04T01:32:38.242Z,24.95
2022-10-04T01:32:48.366Z,24.95
2022-10-04T01:32:58.360Z,24.95
2022-10-04T01:33:08.619Z,24.95
2022-10-04T01:33:18.617Z,24.94
2022-10-04T01:33:28.735Z,24.95
2022-10-04T01:33:38.985Z,24.94
2022-10-04T01:33:49.099Z,24.95
2022-10-04T01:33:59.217Z,24.95
2022-10-04T01:34:09.341Z,24.95
2022-10-04T01:34:19.456Z,24.93
2022-10-04T01:34:29.582Z,24.95
2022-10-04T01:34:39.714Z,24.94
2022-10-04T01:34:49.826Z,24.94
2022-10-04T01:34:59.939Z,24.94
2022-10-04T01:35:10.065Z,24.94
2022-10-04T01:35:20.181Z,24.93
2022-10-04T01:35:30.302Z,24.93
2022-10-04T01:35:40.423Z,24.94
2022-10-04T01:35:50.544Z,24.93
2022-10-04T01:36:00.663Z,24.93
2022-10-04T01:36:10.788Z,24.93
2022-10-04T01:36:20.903Z,24.93
2022-10-04T01:36:31.049Z,24.93
2022-10-04T01:36:41.145Z,24.93
2022-10-04T01:36:51.263Z,24.93
2022-10-04T01:37:01.380Z,24.93
2022-10-04T01:37:11.504Z,24.93
2022-10-04T01:37:21.618Z,24.93
2022-10-04T01:37:31.737Z,24.93
2022-10-04T01:37:41.905Z,24.93
2022-10-04T01:37:51.872Z,24.93
2022-10-04T01:38:01.988Z,24.92
2022-10-04T01:38:12.237Z,24.92
2022-10-04T01:38:22.359Z,24.93
2022-10-04T01:38:32.364Z,24.93
2022-10-04T01:38:42.625Z,24.93
2022-10-04T01:38:52.748Z,24.92
2022-10-04T01:39:02.865Z,24.92
2022-10-04T01:39:12.987Z,24.92
2022-10-04T01:39:23.103Z,24.92
2022-10-04T01:39:33.232Z,24.92
2022-10-04T01:39:43.358Z,24.92
2022-10-04T01:39:53.479Z,24.92
2022-10-04T01:40:03.477Z,24.91
2022-10-04T01:40:13.736Z,24.91
2022-10-04T01:40:23.735Z,24.91
2022-10-04T01:40:33.853Z,24.92
2022-10-04T01:40:44.100Z,24.91
2022-10-04T01:40:54.220Z,24.92
2022-10-04T01:41:04.334Z,24.91
2022-10-04T01:41:14.460Z,24.92
2022-10-04T01:41:24.573Z,24.92
2022-10-04T01:41:34.690Z,24.92
2022-10-04T01:41:44.811Z,24.92
2022-10-04T01:41:54.930Z,24.92
2022-10-04T01:42:04.932Z,24.92
2022-10-04T01:42:15.191Z,24.92
2022-10-04T01:42:25.303Z,24.91
2022-10-04T01:42:35.429Z,24.91
2022-10-04T01:42:45.539Z,24.90
2022-10-04T01:42:55.664Z,24.91
2022-10-04T01:43:05.661Z,24.90
2022-10-04T01:43:15.908Z,24.90
2022-10-04T01:43:26.024Z,24.90
2022-10-04T01:43:36.143Z,24.90
2022-10-04T01:43:46.276Z,24.90
2022-10-04T01:43:56.285Z,24.90
2022-10-04T01:44:06.278Z,24.90
2022-10-04T01:44:16.285Z,24.90
2022-10-04T01:44:26.284Z,24.90
2022-10-04T01:44:36.406Z,24.90
2022-10-04T01:44:46.526Z,24.90
2022-10-04T01:44:56.526Z,24.89
2022-10-04T01:45:06.646Z,24.89
2022-10-04T01:45:16.677Z,24.89
2022-10-04T01:45:26.780Z,24.89
2022-10-04T01:45:36.777Z,24.89
2022-10-04T01:45:46.895Z,24.89
2022-10-04T01:45:57.084Z,24.90
2022-10-04T01:46:07.105Z,24.89
2022-10-04T01:46:17.200Z,24.89
2022-10-04T01:46:27.514Z,24.89
2022-10-04T01:46:37.780Z,24.88
2022-10-04T01:46:47.631Z,24.89
2022-10-04T01:46:57.638Z,24.88
2022-10-04T01:47:07.748Z,24.88
2022-10-04T01:47:17.867Z,24.88
2022-10-04T01:47:27.985Z,24.88
2022-10-04T01:47:38.104Z,24.88
2022-10-04T01:47:48.226Z,24.89
2022-10-04T01:47:58.341Z,24.89
2022-10-04T01:48:08.341Z,24.89
2022-10-04T01:48:18.457Z,24.88
2022-10-04T01:48:28.577Z,24.88
2022-10-04T01:48:38.598Z,24.88
2022-10-04T01:48:48.587Z,24.87
2022-10-04T01:48:58.704Z,24.88
2022-10-04T01:49:08.826Z,24.88
2022-10-04T01:49:18.942Z,24.88
2022-10-04T01:49:29.058Z,24.88
2022-10-04T01:49:39.076Z,24.88
2022-10-04T01:49:49.193Z,24.88
2022-10-04T01:49:59.198Z,24.88
2022-10-04T01:50:13.578Z,24.88
2022-10-04T01:50:19.441Z,24.82
2022-10-04T01:50:29.570Z,24.84
2022-10-04T01:50:39.570Z,24.84
2022-10-04T01:50:49.695Z,24.85
2022-10-04T01:50:59.831Z,24.85
2022-10-04T01:51:09.833Z,24.85
2022-10-04T01:51:19.947Z,24.86
2022-10-04T01:51:30.065Z,24.86
2022-10-04T01:51:40.489Z,24.86
2022-10-04T01:51:50.119Z,24.86
2022-10-04T01:52:00.235Z,24.86
2022-10-04T01:52:10.354Z,24.86
2022-10-04T01:52:20.469Z,24.87
2022-10-04T01:52:30.583Z,24.86
2022-10-04T01:52:40.702Z,24.87
2022-10-04T01:52:50.824Z,24.87
2022-10-04T01:53:00.856Z,24.86
2022-10-04T01:53:11.100Z,24.86
2022-10-04T01:53:21.214Z,24.86
2022-10-04T01:53:31.330Z,24.87
2022-10-04T01:53:41.452Z,24.86
2022-10-04T01:53:51.568Z,24.86
2022-10-04T01:54:01.576Z,24.86
2022-10-04T01:54:11.823Z,24.86
2022-10-04T01:54:21.937Z,24.87
2022-10-04T01:54:32.059Z,24.87
2022-10-04T01:54:42.180Z,24.87
2022-10-04T01:54:52.334Z,24.86
2022-10-04T01:55:02.325Z,24.87
2022-10-04T01:55:12.574Z,24.86
2022-10-04T01:55:22.573Z,24.86
2022-10-04T01:55:32.693Z,24.86
2022-10-04T01:55:42.939Z,24.87
2022-10-04T01:55:52.939Z,24.86
2022-10-04T01:56:03.065Z,24.87
2022-10-04T01:56:13.313Z,24.87
2022-10-04T01:56:23.430Z,24.87
2022-10-04T01:56:33.546Z,24.86
2022-10-04T01:56:43.665Z,24.87
2022-10-04T01:56:53.789Z,24.86
2022-10-04T01:57:03.904Z,24.87
2022-10-04T01:57:14.028Z,24.88
2022-10-04T01:57:24.143Z,24.87
2022-10-04T01:57:34.261Z,24.86
2022-10-04T01:57:44.387Z,24.86
2022-10-04T01:57:54.387Z,24.87
2022-10-04T01:58:04.383Z,24.86
2022-10-04T01:58:14.401Z,24.86
2022-10-04T01:58:24.398Z,24.87
2022-10-04T01:58:34.515Z,24.86
2022-10-04T01:58:44.630Z,24.86
2022-10-04T01:58:54.758Z,24.86
2022-10-04T01:59:04.754Z,24.86
2022-10-04T01:59:14.877Z,24.87
2022-10-04T01:59:24.879Z,24.86
2022-10-04T01:59:35.001Z,24.86
2022-10-04T01:59:45.111Z,24.85
2022-10-04T01:59:55.125Z,24.86
2022-10-04T02:00:05.235Z,24.86
2022-10-04T02:00:15.351Z,24.86
2022-10-04T02:00:25.472Z,24.86
2022-10-04T02:00:35.592Z,24.85
2022-10-04T02:00:45.825Z,24.86
2022-10-04T02:00:55.869Z,24.85
2022-10-04T02:01:05.935Z,24.86
2022-10-04T02:01:16.037Z,24.85
2022-10-04T02:01:26.024Z,24.85
2022-10-04T02:01:36.077Z,24.85
2022-10-04T02:01:46.392Z,24.85
2022-10-04T02:01:56.121Z,24.84
2022-10-04T02:02:06.116Z,24.85
2022-10-04T02:02:16.238Z,24.84
2022-10-04T02:02:26.353Z,24.84
2022-10-04T02:02:36.476Z,24.84
2022-10-04T02:02:46.599Z,24.84
2022-10-04T02:02:56.730Z,24.85
2022-10-04T02:03:06.836Z,24.85
2022-10-04T02:03:16.954Z,24.85
2022-10-04T02:03:27.080Z,24.85
2022-10-04T02:03:37.239Z,24.84
2022-10-04T02:03:47.269Z,24.85
2022-10-04T02:03:57.392Z,24.85
2022-10-04T02:04:07.650Z,24.85
2022-10-04T02:04:22.013Z,24.84
2022-10-04T02:04:27.867Z,24.79
2022-10-04T02:04:38.176Z,24.82
2022-10-04T02:04:48.230Z,24.81
2022-10-04T02:04:58.326Z,24.81
2022-10-04T02:05:08.326Z,24.82
2022-10-04T02:05:18.352Z,24.83
2022-10-04T02:05:28.346Z,24.82
2022-10-04T02:05:38.469Z,24.82
2022-10-04T02:05:48.462Z,24.82
2022-10-04T02:05:58.581Z,24.83
2022-10-04T02:06:08.577Z,24.83
2022-10-04T02:06:18.701Z,24.82
2022-10-04T02:06:28.813Z,24.83
2022-10-04T02:06:38.951Z,24.82
2022-10-04T02:06:49.106Z,24.83
2022-10-04T02:06:59.203Z,24.83
2022-10-04T02:07:09.212Z,24.84
2022-10-04T02:07:19.463Z,24.83
2022-10-04T02:07:29.577Z,24.84
2022-10-04T02:07:39.700Z,24.83
2022-10-04T02:07:49.821Z,24.84
2022-10-04T02:07:59.943Z,24.83
2022-10-04T02:08:09.940Z,24.84
2022-10-04T02:08:20.203Z,24.83
2022-10-04T02:08:30.196Z,24.83
2022-10-04T02:08:40.312Z,24.82
2022-10-04T02:08:50.586Z,24.82
2022-10-04T02:09:00.575Z,24.84
2022-10-04T02:09:10.572Z,24.84
2022-10-04T02:09:20.945Z,24.84
2022-10-04T02:09:30.947Z,24.83
2022-10-04T02:09:41.063Z,24.84
2022-10-04T02:09:51.310Z,24.84
2022-10-04T02:10:01.429Z,24.84
2022-10-04T02:10:11.428Z,24.84